Time;durP1;ratioP1;P1;durP2;ratioP2;P2;SDS_P1;SDS_P2;PMS_P1;PMS_P2;Temp;Humidity;BMP_temperature;BMP_pressure;BME280_temperature;BME280_humidity;BME280_pressure;Samples;Min_cycle;Max_cycle;Signal;HPM_P1;HPM_P2
2023/09/05 00:02:06;;;;;;;;;8.00;8.00;;;;;16.52;72.30;100376.81;6279693;20;2753454;-60
2023/09/05 00:04:35;;;;;;;;;12.20;9.00;;;;;16.48;72.66;100378.00;6294246;20;2762782;-60
2023/09/05 00:07:05;;;;;;;;;11.00;9.00;;;;;16.49;73.08;100371.63;6284666;20;2761855;-60
2023/09/05 00:09:34;;;;;;;;;11.33;10.00;;;;;16.56;72.92;100373.78;6274588;20;2796212;-59
2023/09/05 00:12:08;;;;;;;;;8.20;8.20;;;;;16.61;72.60;100376.09;6332701;20;2748244;-61
2023/09/05 00:14:37;;;;;;;;;8.40;8.00;;;;;16.35;73.80;100373.53;6327741;20;2744148;-60
2023/09/05 00:17:07;;;;;;;;;11.50;8.50;;;;;16.48;73.81;100376.16;6340606;20;2771226;-60
2023/09/05 00:19:37;;;;;;;;;10.60;10.60;;;;;16.41;73.66;100364.09;6301097;20;2773227;-59
2023/09/05 00:22:05;;;;;;;;;9.67;8.00;;;;;16.27;74.86;100369.66;6280490;20;2756519;-59
2023/09/05 00:24:38;;;;;;;;;10.50;9.50;;;;;16.35;74.28;100370.81;6307911;20;2782658;-59
2023/09/05 00:27:11;;;;;;;;;10.00;10.00;;;;;16.43;74.37;100370.25;6275367;20;2798163;-60
2023/09/05 00:29:42;;;;;;;;;9.00;9.00;;;;;16.22;74.95;100365.44;6273658;20;3474349;-59
2023/09/05 00:32:10;;;;;;;;;9.00;8.00;;;;;16.16;75.49;100356.91;6306804;20;3473193;-59
2023/09/05 00:34:41;;;;;;;;;11.20;9.00;;;;;16.40;74.57;100355.09;6333096;20;2774367;-51
2023/09/05 00:37:09;;;;;;;;;11.00;10.00;;;;;16.21;75.34;100357.44;6277850;20;2794091;-51
2023/09/05 00:39:40;;;;;;;;;11.00;10.00;;;;;16.20;75.66;100363.84;6303446;20;2785841;-51
2023/09/05 00:42:10;;;;;;;;;9.00;9.00;;;;;16.15;75.68;100355.19;6278959;20;2744064;-49
2023/09/05 00:44:42;;;;;;;;;10.00;10.00;;;;;16.04;75.92;100366.81;6300946;20;2792069;-51
2023/09/05 00:47:11;;;;;;;;;10.00;10.00;;;;;16.27;75.29;100356.97;6279259;20;2792016;-49
2023/09/05 00:49:47;;;;;;;;;10.50;8.50;;;;;16.29;75.43;100349.59;6273999;20;2772237;-50
2023/09/05 00:52:18;;;;;;;;;11.00;11.00;;;;;16.16;75.90;100343.34;6275063;20;3540320;-52
2023/09/05 00:54:47;;;;;;;;;10.33;10.33;;;;;16.17;75.82;100345.09;6303312;20;2794243;-45
2023/09/05 00:57:19;;;;;;;;;10.00;9.00;;;;;16.15;75.99;100339.78;6306354;20;3482706;-51
2023/09/05 00:59:47;;;;;;;;;9.50;9.50;;;;;16.05;76.59;100329.75;6308463;20;2765919;-51
2023/09/05 01:02:15;;;;;;;;;11.00;11.00;;;;;16.11;76.36;100329.28;6280712;20;2789842;-52
2023/09/05 01:04:44;;;;;;;;;12.00;10.33;;;;;16.21;75.99;100331.19;6271938;20;2790205;-55
2023/09/05 01:08:14;;;;;;;;;11.00;9.67;;;;;16.11;76.42;100324.72;6307324;20;2783667;-52
2023/09/05 01:11:00;;;;;;;;;10.00;10.00;;;;;15.89;77.30;100321.88;6313025;20;2794124;-54
2023/09/05 01:13:32;;;;;;;;;12.00;10.00;;;;;16.11;76.58;100323.88;6277314;20;2788853;-53
2023/09/05 01:16:00;;;;;;;;;10.00;10.00;;;;;16.11;76.34;100330.13;6305514;20;3513798;-51
2023/09/05 01:18:33;;;;;;;;;12.40;12.40;;;;;16.05;76.48;100329.75;6329925;20;2792020;-48
2023/09/05 01:21:24;;;;;;;;;10.33;9.00;;;;;16.06;76.96;100332.34;6282072;20;2765956;-49
2023/09/05 01:24:24;;;;;;;;;11.00;10.00;;;;;16.10;76.47;100335.69;6310515;20;2788891;-52
2023/09/05 01:26:53;;;;;;;;;9.00;9.00;;;;;16.07;76.72;100328.66;6276274;20;2754491;-52
2023/09/05 01:29:29;;;;;;;;;8.00;8.00;;;;;16.02;76.82;100331.69;6278964;20;2744514;-49
2023/09/05 01:32:00;;;;;;;;;11.00;10.00;;;;;15.95;76.98;100325.00;6285378;20;2788839;-52
2023/09/05 01:34:31;;;;;;;;;9.60;9.60;;;;;16.05;77.00;100325.19;6304233;20;2762760;-48
2023/09/05 01:37:00;;;;;;;;;8.33;8.33;;;;;16.07;76.76;100323.25;6279493;20;2748307;-48
2023/09/05 01:39:28;;;;;;;;;12.00;11.00;;;;;15.94;77.64;100330.53;6312136;20;2792062;-52
2023/09/05 01:41:59;;;;;;;;;14.50;11.00;;;;;16.05;77.08;100329.75;6283342;20;2787890;-51
2023/09/05 01:44:27;;;;;;;;;12.33;11.00;;;;;16.14;76.75;100329.03;6275516;20;2792008;-47
2023/09/05 01:46:56;;;;;;;;;14.00;12.00;;;;;16.13;76.82;100321.91;6307593;20;3513815;-53
2023/09/05 01:49:24;;;;;;;;;12.00;10.00;;;;;15.97;77.32;100322.19;6306435;20;2789978;-51
2023/09/05 01:51:53;;;;;;;;;10.67;10.67;;;;;16.09;76.90;100331.22;6306629;20;3508720;-51
2023/09/05 01:54:24;;;;;;;;;11.00;11.00;;;;;15.89;77.82;100325.47;6333181;20;2784741;-47
2023/09/05 01:56:52;;;;;;;;;13.00;11.00;;;;;16.06;77.10;100320.63;6284286;20;2790941;-50
2023/09/05 01:59:22;;;;;;;;;10.00;10.00;;;;;16.07;77.17;100328.66;6278449;20;2786208;-52
2023/09/05 02:01:49;;;;;;;;;12.00;11.00;;;;;15.97;77.30;100327.59;6314679;20;2790007;-49
2023/09/05 02:04:17;;;;;;;;;13.50;11.00;;;;;15.89;78.03;100333.59;6281668;20;2789880;-47
2023/09/05 02:06:45;;;;;;;;;12.50;10.00;;;;;15.78;78.33;100330.81;6281804;20;2792220;-51
2023/09/05 02:09:13;;;;;;;;;13.00;11.00;;;;;15.77;78.35;100331.75;6284633;20;2802564;-52
2023/09/05 02:11:42;;;;;;;;;11.33;11.33;;;;;15.59;79.12;100334.81;6279737;20;3515933;-52
2023/09/05 02:14:09;;;;;;;;;10.00;10.00;;;;;15.61;78.99;100326.56;6316627;20;2778388;-50
2023/09/05 02:16:38;;;;;;;;;12.00;12.00;;;;;15.76;78.39;100335.47;6280835;20;3515890;-50
2023/09/05 02:19:07;;;;;;;;;12.00;11.00;;;;;15.56;78.96;100326.03;6309965;20;3510705;-49
2023/09/05 02:21:36;;;;;;;;;13.33;12.00;;;;;15.50;79.35;100321.91;6309908;20;3537908;-54
2023/09/05 02:24:05;;;;;;;;;12.00;11.00;;;;;15.52;79.66;100324.53;6310333;20;2789980;-52
2023/09/05 02:26:33;;;;;;;;;12.00;11.00;;;;;15.51;79.34;100320.97;6312825;20;2792057;-51
2023/09/05 02:29:01;;;;;;;;;10.00;10.00;;;;;15.41;79.59;100319.91;6279381;20;3513848;-52
2023/09/05 02:31:30;;;;;;;;;10.00;10.00;;;;;15.61;79.28;100320.28;6306988;20;3512724;-50
2023/09/05 02:33:59;;;;;;;;;15.67;14.00;;;;;15.54;79.41;100320.75;6309107;20;3539894;-47
2023/09/05 02:36:30;;;;;;;;;11.00;11.00;;;;;15.47;79.36;100322.16;6282259;20;2797784;-52
2023/09/05 02:39:00;;;;;;;;;12.00;12.00;;;;;15.47;79.67;100319.44;6275882;20;3518037;-49
2023/09/05 02:41:28;;;;;;;;;13.00;10.00;;;;;15.51;79.45;100315.56;6316671;20;2791956;-50
2023/09/05 02:43:56;;;;;;;;;14.50;13.00;;;;;15.52;79.31;100321.81;6283618;20;2802430;-49
2023/09/05 02:46:24;;;;;;;;;12.00;12.00;;;;;15.62;78.76;100316.63;6279561;20;3522194;-48
2023/09/05 02:48:53;;;;;;;;;13.00;11.67;;;;;15.52;79.11;100322.69;6308174;20;3510737;-47
2023/09/05 02:51:22;;;;;;;;;13.33;12.67;;;;;15.53;78.72;100324.44;6310092;20;3523209;-49
2023/09/05 02:53:50;;;;;;;;;10.33;10.33;;;;;15.64;78.41;100317.34;6301945;20;3513966;-54
2023/09/05 02:56:19;;;;;;;;;13.67;12.33;;;;;15.77;78.12;100331.75;6306283;20;3520278;-54
2023/09/05 02:58:49;;;;;;;;;11.00;11.00;;;;;15.77;77.92;100327.22;6275189;20;2780490;-50
2023/09/05 03:01:16;;;;;;;;;10.50;10.50;;;;;15.68;78.12;100332.41;6313348;20;2794011;-50
2023/09/05 03:03:44;;;;;;;;;10.50;10.50;;;;;15.66;78.25;100334.34;6282172;20;2786732;-50
2023/09/05 03:06:16;;;;;;;;;10.00;10.00;;;;;15.69;78.22;100328.75;6278792;20;2796150;-52
2023/09/05 03:08:45;;;;;;;;;9.00;9.00;;;;;15.78;77.66;100333.50;6278408;20;2755223;-48
2023/09/05 03:11:18;;;;;;;;;10.50;10.00;;;;;15.77;77.90;100327.22;6285468;20;2794079;-52
2023/09/05 03:13:48;;;;;;;;;10.00;10.00;;;;;15.75;77.74;100339.16;6275891;20;2785978;-53
2023/09/05 03:16:18;;;;;;;;;9.33;9.33;;;;;15.73;78.08;100332.97;6312070;20;2771125;-50
2023/09/05 03:18:47;;;;;;;;;12.00;11.00;;;;;15.78;77.54;100328.94;6308862;20;2792151;-53
2023/09/05 03:21:15;;;;;;;;;12.00;12.00;;;;;15.65;78.16;100336.22;6305642;20;2670184;-50
2023/09/05 03:23:44;;;;;;;;;11.00;10.00;;;;;15.86;77.44;100336.53;6276580;20;3520070;-47
2023/09/05 03:26:12;;;;;;;;;12.00;12.00;;;;;15.69;77.70;100343.19;6310487;20;2798290;-51
2023/09/05 03:28:45;;;;;;;;;11.33;10.00;;;;;15.66;78.44;100345.19;6307049;20;3513812;-50
2023/09/05 03:31:13;;;;;;;;;12.50;10.00;;;;;15.69;78.27;100347.69;6313696;20;2788868;-48
2023/09/05 03:33:42;;;;;;;;;11.33;11.00;;;;;15.63;78.39;100351.69;6274434;20;2789988;-51
2023/09/05 03:36:11;;;;;;;;;11.00;9.00;;;;;15.59;78.59;100345.63;6312774;20;2776400;-51
2023/09/05 03:38:39;;;;;;;;;9.00;9.00;;;;;15.43;79.46;100350.44;6276725;20;2748343;-51
2023/09/05 03:41:09;;;;;;;;;10.00;10.00;;;;;15.31;79.54;100345.88;6311181;20;2793099;-48
2023/09/05 03:43:37;;;;;;;;;12.00;12.00;;;;;15.51;79.12;100342.63;6280101;20;2788839;-52
2023/09/05 03:46:05;;;;;;;;;13.00;11.00;;;;;15.41;79.46;100356.91;6273028;20;3522128;-49
2023/09/05 03:48:34;;;;;;;;;12.00;12.00;;;;;15.42;79.49;100356.78;6303441;20;3534860;-49
2023/09/05 03:51:03;;;;;;;;;10.67;10.67;;;;;15.50;79.12;100358.97;6278025;20;2781825;-49
2023/09/05 03:53:32;;;;;;;;;11.67;11.67;;;;;15.16;80.41;100361.34;6306644;20;3526335;-51
2023/09/05 03:56:02;;;;;;;;;12.00;11.00;;;;;15.40;80.01;100366.84;6307280;20;3513859;-53
2023/09/05 03:58:31;;;;;;;;;10.40;10.40;;;;;15.25;79.96;100365.25;6330137;20;2786769;-51
2023/09/05 04:01:14;;;;;;;;;18.33;14.00;;;;;15.29;80.37;100372.16;6273408;20;3554448;-48
2023/09/05 04:03:45;;;;;;;;;13.50;12.00;;;;;14.95;81.53;100374.50;6282363;20;2804481;-48
2023/09/05 04:06:14;;;;;;;;;13.33;13.33;;;;;15.14;80.83;100372.28;6276419;20;3523628;-48
2023/09/05 04:08:43;;;;;;;;;10.00;10.00;;;;;15.12;80.92;100379.63;6305357;20;2778734;-51
2023/09/05 04:11:11;;;;;;;;;13.67;10.67;;;;;15.15;80.91;100375.84;6309464;20;3513822;-50
2023/09/05 04:13:39;;;;;;;;;13.00;12.00;;;;;14.92;81.91;100377.44;6309899;20;2787334;-52
2023/09/05 04:16:08;;;;;;;;;9.67;9.67;;;;;15.05;81.64;100381.00;6277055;20;2769125;-48
2023/09/05 04:18:37;;;;;;;;;10.67;10.33;;;;;15.09;81.61;100381.69;6305602;20;3521117;-49
2023/09/05 04:21:06;;;;;;;;;14.00;14.00;;;;;15.03;81.81;100382.09;6280772;20;2798218;-49
2023/09/05 04:23:34;;;;;;;;;13.00;11.67;;;;;14.68;82.76;100388.94;6279102;20;3528390;-48
2023/09/05 04:26:03;;;;;;;;;12.33;12.33;;;;;14.94;82.39;100386.31;6308298;20;3518090;-49
2023/09/05 04:28:32;;;;;;;;;11.00;11.00;;;;;14.86;82.46;100394.06;6306962;20;3513852;-48
2023/09/05 04:31:05;;;;;;;;;11.00;11.00;;;;;14.77;82.54;100389.28;6311436;20;2802320;-48
2023/09/05 04:33:39;;;;;;;;;12.00;12.00;;;;;14.82;82.84;100387.13;6281313;20;2800383;-50
2023/09/05 04:36:09;;;;;;;;;14.00;14.00;;;;;14.88;82.60;100392.13;6274689;20;3524471;-52
2023/09/05 04:38:38;;;;;;;;;13.00;13.00;;;;;14.60;83.60;100388.59;6303039;20;3521228;-49
2023/09/05 04:41:07;;;;;;;;;13.33;11.67;;;;;14.66;83.90;100390.88;6309505;20;3520200;-46
2023/09/05 04:43:37;;;;;;;;;15.33;14.00;;;;;14.80;83.59;100394.50;6308096;20;3537868;-50
2023/09/05 04:46:09;;;;;;;;;14.00;14.00;;;;;14.76;83.82;100404.63;6281168;20;2801707;-49
2023/09/05 04:48:37;;;;;;;;;13.00;12.00;;;;;14.80;83.82;100400.78;6278549;20;2788845;-48
2023/09/05 04:51:06;;;;;;;;;15.33;12.00;;;;;14.93;83.00;100390.00;6273283;20;3537846;-51
2023/09/05 04:53:35;;;;;;;;;15.33;13.33;;;;;14.99;82.97;100396.81;6273811;20;3511718;-48
2023/09/05 04:56:04;;;;;;;;;14.33;11.67;;;;;15.06;82.78;100396.28;6307879;20;3525311;-50
2023/09/05 04:58:33;;;;;;;;;14.00;12.00;;;;;15.30;82.32;100400.97;6308991;20;3532710;-47
2023/09/05 05:01:02;;;;;;;;;14.00;14.00;;;;;15.38;81.13;100398.59;6305185;20;3531511;-47
2023/09/05 05:03:34;;;;;;;;;8.00;8.00;;;;;15.54;80.64;100396.53;6322510;20;2748166;-50
2023/09/05 05:06:03;;;;;;;;;14.67;11.00;;;;;15.44;81.05;100397.28;6275862;20;3509669;-49
2023/09/05 05:08:32;;;;;;;;;9.33;9.33;;;;;15.45;81.35;100396.31;6309200;20;2772295;-50
2023/09/05 05:11:05;;;;;;;;;11.67;11.67;;;;;15.55;81.37;100398.25;6311103;20;3534627;-48
2023/09/05 05:13:33;;;;;;;;;12.33;12.33;;;;;15.55;80.71;100395.53;6281709;20;3518018;-49
2023/09/05 05:16:02;;;;;;;;;12.00;11.33;;;;;15.80;80.12;100396.56;6310872;20;3513871;-49
2023/09/05 05:18:30;;;;;;;;;12.50;10.50;;;;;15.96;79.23;100402.59;6314727;20;2792193;-49
2023/09/05 05:20:58;;;;;;;;;14.00;12.50;;;;;16.04;79.07;100398.47;6287938;20;2787868;-46
2023/09/05 05:23:28;;;;;;;;;9.40;9.40;;;;;16.38;77.85;100408.53;6309894;20;2778429;-48
2023/09/05 05:26:00;;;;;;;;;12.67;12.67;;;;;16.70;76.16;100410.69;6275075;20;3546131;-48
2023/09/05 05:28:27;;;;;;;;;10.00;10.00;;;;;16.38;77.85;100403.13;6279934;20;2793074;-52
2023/09/05 05:30:56;;;;;;;;;12.67;10.67;;;;;16.57;77.15;100412.59;6278552;20;3522316;-50
2023/09/05 05:33:24;;;;;;;;;11.50;11.50;;;;;16.53;77.39;100413.78;6316874;20;2784717;-48
2023/09/05 05:35:55;;;;;;;;;14.00;11.00;;;;;16.76;76.77;100417.47;6280049;20;3507744;-50
2023/09/05 05:38:24;;;;;;;;;13.67;13.00;;;;;16.85;76.18;100423.13;6310116;20;3513856;-50
2023/09/05 05:40:54;;;;;;;;;14.00;12.67;;;;;16.91;76.00;100420.91;6310155;20;3518107;-51
2023/09/05 05:43:27;;;;;;;;;10.00;9.33;;;;;17.06;75.42;100422.44;6312456;20;3486858;-48
2023/09/05 05:45:55;;;;;;;;;11.50;10.00;;;;;17.33;75.05;100414.88;6316078;20;2787809;-51
2023/09/05 05:48:25;;;;;;;;;10.33;10.33;;;;;17.37;74.87;100414.63;6280738;20;2790979;-48
2023/09/05 05:50:55;;;;;;;;;10.33;10.00;;;;;17.52;74.24;100417.00;6311519;20;3501325;-49
2023/09/05 05:53:25;;;;;;;;;9.20;9.00;;;;;18.42;71.52;100419.72;6324222;20;2751808;-52
2023/09/05 05:55:54;;;;;;;;;9.33;9.33;;;;;18.33;70.70;100417.78;6267103;20;2767121;-51
2023/09/05 05:58:23;;;;;;;;;11.00;11.00;;;;;18.42;70.95;100427.88;6307214;20;2792166;-54
2023/09/05 06:00:53;;;;;;;;;6.00;6.00;;;;;19.41;67.44;100420.47;6334456;20;2727422;-52
2023/09/05 06:03:23;;;;;;;;;9.60;8.60;;;;;22.25;57.42;100434.31;6338093;20;2753401;-53
2023/09/05 06:05:52;;;;;;;;;10.00;8.33;;;;;23.05;54.17;100438.19;6278178;20;2763834;-51
2023/09/05 06:08:22;;;;;;;;;11.60;9.00;;;;;24.24;52.64;100433.03;6332532;20;2767034;-49
2023/09/05 06:10:52;;;;;;;;;8.60;8.20;;;;;23.44;52.57;100427.72;6306133;20;2750303;-52
2023/09/05 06:13:21;;;;;;;;;9.00;9.00;;;;;23.90;52.77;100426.69;6286620;20;2743028;-53
2023/09/05 06:15:51;;;;;;;;;7.40;7.40;;;;;23.67;52.49;100419.84;6335204;20;2753402;-52
2023/09/05 06:18:21;;;;;;;;;8.80;8.80;;;;;24.18;51.80;100419.13;6302754;20;2742109;-52
2023/09/05 06:20:51;;;;;;;;;10.20;9.00;;;;;22.89;52.56;100421.56;6305131;20;2775309;-52
2023/09/05 06:23:19;;;;;;;;;7.00;7.00;;;;;22.07;54.08;100426.91;6287917;20;2752394;-49
2023/09/05 06:25:48;;;;;;;;;9.33;7.00;;;;;22.12;54.29;100427.31;6322197;20;2754162;-52
2023/09/05 06:28:17;;;;;;;;;7.67;7.00;;;;;24.29;51.94;100433.41;6311224;20;2753486;-51
2023/09/05 06:30:47;;;;;;;;;7.00;7.00;;;;;27.82;43.12;100443.53;6334190;20;2756632;-50
2023/09/05 06:33:16;;;;;;;;;7.00;7.00;;;;;24.14;50.49;100435.03;6279746;20;2752428;-51
2023/09/05 06:35:45;;;;;;;;;8.20;8.20;;;;;24.27;50.32;100426.34;6332599;20;2752401;-47
2023/09/05 06:38:14;;;;;;;;;9.00;6.00;;;;;24.94;49.37;100429.16;6280897;20;2750473;-46
2023/09/05 06:40:43;;;;;;;;;7.00;7.00;;;;;25.26;48.02;100431.09;6325515;20;2744487;-51
2023/09/05 06:43:11;;;;;;;;;9.00;8.00;;;;;25.62;46.80;100428.84;6313453;20;2748157;-49
2023/09/05 06:45:40;;;;;;;;;8.67;8.00;;;;;25.94;45.72;100440.84;6322395;20;2749249;-47
2023/09/05 06:48:08;;;;;;;;;7.00;7.00;;;;;28.74;40.71;100451.44;6313965;20;2750300;-51
2023/09/05 06:50:37;;;;;;;;;8.33;7.00;;;;;30.07;37.06;100452.69;6315228;20;2744243;-58
2023/09/05 06:53:05;;;;;;;;;7.00;7.00;;;;;28.76;38.37;100454.88;6312105;20;2750389;-60
2023/09/05 06:55:34;;;;;;;;;8.33;6.67;;;;;30.37;35.98;100450.56;6310498;20;2737917;-60
2023/09/05 06:58:04;;;;;;;;;9.33;8.00;;;;;28.00;39.48;100436.59;6320034;20;2759780;-60
2023/09/05 07:00:34;;;;;;;;;7.00;7.00;;;;;29.18;37.20;100450.47;6321655;20;2748627;-61
2023/09/05 07:03:03;;;;;;;;;6.00;6.00;;;;;30.06;35.81;100462.06;6310922;20;2748207;-61
2023/09/05 07:05:31;;;;;;;;;7.33;6.00;;;;;30.25;35.61;100460.53;6317341;20;2733554;-61
2023/09/05 07:07:59;;;;;;;;;6.00;6.00;;;;;28.81;37.66;100455.13;6320628;20;2737827;-60
2023/09/05 07:10:28;;;;;;;;;8.67;7.33;;;;;29.00;36.93;100461.94;6320304;20;2752404;-62
2023/09/05 07:12:57;;;;;;;;;5.67;5.67;;;;;29.69;36.82;100475.22;6314837;20;2744103;-61
2023/09/05 07:15:26;;;;;;;;;7.00;7.00;;;;;29.97;35.51;100465.00;6337734;20;2750392;-62
2023/09/05 07:17:55;;;;;;;;;9.67;7.33;;;;;30.82;34.82;100468.50;6288074;20;2761184;-62
2023/09/05 07:20:24;;;;;;;;;7.00;7.00;;;;;30.57;36.04;100475.59;6320911;20;2748336;-60
2023/09/05 07:22:52;;;;;;;;;7.00;6.00;;;;;30.84;34.23;100474.69;6315504;20;2744099;-60
2023/09/05 07:25:21;;;;;;;;;7.33;7.33;;;;;28.59;38.39;100465.28;6312343;20;2752417;-59
2023/09/05 07:27:49;;;;;;;;;9.00;9.00;;;;;25.86;42.82;100460.16;6311849;20;2751326;-60
2023/09/05 07:30:18;;;;;;;;;9.67;8.00;;;;;24.51;46.03;100458.56;6316571;20;2758702;-58
2023/09/05 07:32:47;;;;;;;;;9.33;7.00;;;;;24.32;46.95;100460.50;6311090;20;2749282;-59
2023/09/05 07:35:16;;;;;;;;;9.67;8.00;;;;;24.99;46.12;100459.75;6316349;20;2748229;-59
2023/09/05 07:37:44;;;;;;;;;8.00;8.00;;;;;25.06;45.84;100463.50;6308478;20;2745117;-60
2023/09/05 07:40:14;;;;;;;;;7.00;7.00;;;;;24.80;46.34;100468.25;6309276;20;2750287;-59
2023/09/05 07:42:43;;;;;;;;;6.00;5.00;;;;;24.18;47.20;100468.50;6315137;20;2728456;-60
2023/09/05 07:45:11;;;;;;;;;6.33;6.33;;;;;24.62;46.47;100469.25;6307606;20;2750028;-59
2023/09/05 07:47:41;;;;;;;;;8.60;7.20;;;;;24.43;46.47;100466.72;6335239;20;2754488;-60
2023/09/05 07:50:10;;;;;;;;;7.33;7.33;;;;;24.63;46.67;100467.38;6283599;20;2744212;-60
2023/09/05 07:52:39;;;;;;;;;8.33;8.33;;;;;24.73;46.32;100462.59;6306947;20;2752350;-60
2023/09/05 07:55:08;;;;;;;;;8.00;7.00;;;;;24.37;47.24;100457.28;6320151;20;2748226;-60
2023/09/05 07:57:37;;;;;;;;;9.00;9.00;;;;;24.98;47.41;100461.59;6307990;20;2748366;-59
2023/09/05 08:00:08;;;;;;;;;7.00;7.00;;;;;25.62;45.95;100464.59;6308424;20;2747345;-59
2023/09/05 08:02:37;;;;;;;;;11.00;9.00;;;;;25.37;46.08;100471.13;6312362;20;2769190;-60
2023/09/05 08:05:06;;;;;;;;;10.00;9.00;;;;;25.17;45.76;100460.50;6316807;20;2768100;-61
2023/09/05 08:07:37;;;;;;;;;7.67;7.00;;;;;25.31;45.48;100460.84;6310731;20;2752446;-61
2023/09/05 08:10:08;;;;;;;;;7.00;7.00;;;;;25.68;46.50;100456.69;6337630;20;2749267;-62
2023/09/05 08:12:39;;;;;;;;;6.17;5.17;;;;;25.90;45.92;100467.00;6324937;20;3457561;-62
2023/09/05 08:15:09;;;;;;;;;8.67;8.67;;;;;25.38;45.72;100451.72;6320708;20;2752426;-62
2023/09/05 08:17:38;;;;;;;;;6.33;6.33;;;;;26.29;44.56;100455.19;6315811;20;2746213;-62
2023/09/05 08:20:08;;;;;;;;;8.00;7.33;;;;;25.95;45.05;100460.97;6314400;20;2746202;-62
2023/09/05 08:22:36;;;;;;;;;7.67;7.67;;;;;26.31;43.27;100458.63;6312918;20;2749309;-62
2023/09/05 08:25:09;;;;;;;;;7.00;7.00;;;;;26.07;44.48;100451.31;6317402;20;2736839;-63
2023/09/05 08:27:39;;;;;;;;;10.33;8.00;;;;;25.97;45.01;100459.75;6312910;20;2764875;-62
2023/09/05 08:30:13;;;;;;;;;6.67;6.67;;;;;25.54;45.56;100448.13;6313939;20;2745140;-60
2023/09/05 08:32:43;;;;;;;;;10.00;7.33;;;;;25.87;44.62;100455.50;6314643;20;2760713;-63
2023/09/05 08:35:12;;;;;;;;;7.33;7.33;;;;;25.65;44.36;100451.53;6316379;20;2748406;-64
2023/09/05 08:37:40;;;;;;;;;4.33;4.33;;;;;25.73;43.27;100443.28;6315471;20;2750325;-61
2023/09/05 08:40:10;;;;;;;;;7.00;7.00;;;;;25.94;43.75;100453.75;6324289;20;2628429;-60
2023/09/05 08:42:39;;;;;;;;;6.33;6.33;;;;;25.60;45.13;100449.31;6320539;20;2745111;-60
2023/09/05 08:45:11;;;;;;;;;8.67;7.00;;;;;26.14;44.15;100445.94;6313912;20;2749277;-61
2023/09/05 08:47:40;;;;;;;;;6.33;6.33;;;;;26.05;43.80;100459.75;6315374;20;2746210;-61
2023/09/05 08:50:09;;;;;;;;;7.33;7.00;;;;;26.09;43.31;100449.22;6315195;20;2754611;-61
2023/09/05 08:52:42;;;;;;;;;6.00;6.00;;;;;25.89;43.70;100450.69;6337955;20;2739849;-61
2023/09/05 08:55:13;;;;;;;;;6.00;6.00;;;;;25.62;44.11;100444.50;6285378;20;2746113;-60
2023/09/05 08:57:47;;;;;;;;;7.00;7.00;;;;;25.68;44.38;100446.56;6315121;20;2748230;-61
2023/09/05 09:00:18;;;;;;;;;8.00;6.67;;;;;25.57;44.87;100439.50;6310802;20;2750410;-61
2023/09/05 09:02:46;;;;;;;;;7.00;7.00;;;;;26.12;44.42;100437.88;6315714;20;2747203;-61
2023/09/05 09:05:15;;;;;;;;;10.00;7.00;;;;;26.46;43.53;100440.34;6315346;20;2777330;-61
2023/09/05 09:07:44;;;;;;;;;7.00;7.00;;;;;26.34;43.22;100430.75;6311958;20;2756703;-61
2023/09/05 09:10:23;;;;;;;;;5.33;5.33;;;;;26.13;43.31;100433.25;6322915;20;2744033;-61
2023/09/05 09:13:18;;;;;;;;;7.00;6.20;;;;;26.22;43.48;100429.41;6337732;20;2756529;-60
2023/09/05 09:15:47;;;;;;;;;6.33;4.00;;;;;26.20;43.75;100429.59;6294716;20;2738986;-60
2023/09/05 09:18:20;;;;;;;;;7.80;6.20;;;;;25.90;43.58;100425.72;6339302;20;2744077;-62
2023/09/05 09:20:50;;;;;;;;;5.20;5.20;;;;;25.93;44.69;100411.59;6306778;20;2731501;-62
2023/09/05 09:23:29;;;;;;;;;6.00;6.00;;;;;26.12;44.08;100417.72;6316132;20;2731635;-63
2023/09/05 09:25:59;;;;;;;;;7.00;7.00;;;;;27.08;42.90;100422.06;6316962;20;2754481;-63
2023/09/05 09:28:34;;;;;;;;;4.00;4.00;;;;;27.04;43.02;100420.72;6334316;20;2748187;-63
2023/09/05 09:31:12;;;;;;;;;7.00;7.00;;;;;26.58;42.19;100413.25;6287528;20;2737784;-63
2023/09/05 09:33:42;;;;;;;;;6.33;6.33;;;;;26.27;42.95;100413.22;6311975;20;2741903;-62
2023/09/05 09:36:12;;;;;;;;;6.00;6.00;;;;;26.89;43.24;100407.72;6310451;20;2736789;-64
2023/09/05 09:38:41;;;;;;;;;6.33;6.33;;;;;27.02;43.14;100406.28;6315689;20;2733770;-61
2023/09/05 09:41:12;;;;;;;;;6.00;6.00;;;;;26.81;42.66;100412.44;6339441;20;2728927;-64
2023/09/05 09:43:42;;;;;;;;;5.40;5.40;;;;;26.81;43.58;100410.53;6307342;20;2736732;-63
2023/09/05 09:46:11;;;;;;;;;7.00;7.00;;;;;27.10;43.03;100398.78;6286839;20;2741946;-64
2023/09/05 09:48:44;;;;;;;;;5.20;5.20;;;;;27.28;41.98;100395.75;6340028;20;2741849;-63
2023/09/05 09:51:14;;;;;;;;;5.33;5.33;;;;;27.15;42.95;100403.75;6283516;20;2746110;-62
2023/09/05 09:53:48;;;;;;;;;6.33;6.33;;;;;27.20;41.80;100400.44;6308862;20;2750497;-63
2023/09/05 09:56:19;;;;;;;;;7.67;5.00;;;;;27.18;41.55;100400.66;6312209;20;2738936;-62
2023/09/05 09:58:50;;;;;;;;;5.33;5.33;;;;;26.98;42.19;100404.91;6303238;20;2733730;-62
2023/09/05 10:01:20;;;;;;;;;5.67;5.67;;;;;27.22;40.97;100401.97;6314010;20;2741005;-63
2023/09/05 10:03:50;;;;;;;;;5.80;5.40;;;;;26.60;42.80;100391.06;6339060;20;2738902;-64
2023/09/05 10:06:22;;;;;;;;;7.33;7.00;;;;;26.89;42.62;100390.34;6284925;20;2756532;-63
2023/09/05 10:08:52;;;;;;;;;6.00;5.80;;;;;26.76;42.81;100384.59;6336507;20;2739018;-62
2023/09/05 10:11:21;;;;;;;;;8.00;8.00;;;;;27.01;43.21;100382.50;6282922;20;2751426;-65
2023/09/05 10:13:51;;;;;;;;;5.00;5.00;;;;;27.04;41.51;100382.13;6315239;20;2729537;-64
2023/09/05 10:16:22;;;;;;;;;5.40;5.40;;;;;26.66;42.55;100374.66;6334933;20;2735750;-65
2023/09/05 10:18:51;;;;;;;;;6.33;6.33;;;;;26.68;42.83;100372.56;6280612;20;2741993;-64
2023/09/05 10:21:25;;;;;;;;;7.40;5.00;;;;;27.01;42.33;100382.50;6337943;20;2748148;-63
2023/09/05 10:23:54;;;;;;;;;6.67;6.67;;;;;26.74;42.74;100373.72;6283166;20;2741947;-62
2023/09/05 10:26:24;;;;;;;;;6.00;6.00;;;;;26.93;43.54;100376.00;6314241;20;2737786;-63
2023/09/05 10:28:56;;;;;;;;;6.33;6.33;;;;;27.23;41.56;100376.16;6308500;20;2735771;-62
2023/09/05 10:31:25;;;;;;;;;5.00;5.00;;;;;27.28;41.71;100370.94;6315314;20;2737784;-63
2023/09/05 10:33:54;;;;;;;;;6.00;6.00;;;;;27.56;41.42;100375.81;6312374;20;2737907;-64
2023/09/05 10:36:43;;;;;;;;;7.00;6.00;;;;;27.51;41.20;100372.75;6314070;20;2727367;-63
2023/09/05 10:39:24;;;;;;;;;5.67;5.67;;;;;27.21;42.19;100367.19;6310438;20;2740858;-62
2023/09/05 10:41:53;;;;;;;;;5.67;5.67;;;;;27.49;42.23;100367.44;6314268;20;2737499;-65
2023/09/05 10:44:24;;;;;;;;;5.33;5.33;;;;;27.88;41.16;100373.78;6312946;20;2748206;-65
2023/09/05 10:46:54;;;;;;;;;4.00;4.00;;;;;27.75;41.48;100369.75;6310525;20;2735691;-67
2023/09/05 10:49:23;;;;;;;;;6.40;6.40;;;;;28.20;40.97;100372.50;6333319;20;2746102;-67
2023/09/05 10:52:20;;;;;;;;;6.67;6.67;;;;;27.61;41.53;100362.31;6278790;20;2744026;-67
2023/09/05 10:54:49;;;;;;;;;5.00;5.00;;;;;27.72;41.63;100372.88;6311329;20;2739921;-65
2023/09/05 10:57:43;;;;;;;;;3.00;3.00;;;;;27.93;40.22;100361.09;6309658;20;2739034;-64
2023/09/05 11:00:38;;;;;;;;;8.00;6.33;;;;;27.25;41.05;100365.78;6314776;20;2743001;-64
2023/09/05 11:03:16;;;;;;;;;7.00;5.67;;;;;27.74;40.47;100365.28;6311053;20;2731557;-63
2023/09/05 11:05:45;;;;;;;;;5.67;5.67;;;;;27.90;39.99;100371.69;6311068;20;2740953;-65
2023/09/05 11:08:23;;;;;;;;;5.80;5.00;;;;;28.05;41.21;100374.44;6333656;20;2744072;-64
2023/09/05 11:10:55;;;;;;;;;2.40;2.40;;;;;27.64;40.32;100369.34;6303412;20;2744147;-65
2023/09/05 11:13:23;;;;;;;;;7.67;6.33;;;;;27.84;39.92;100367.78;6281243;20;2732578;-63
2023/09/05 11:16:01;;;;;;;;;6.00;6.00;;;;;27.93;40.74;100368.53;6312290;20;2738880;-64
2023/09/05 11:18:30;;;;;;;;;6.00;6.00;;;;;28.14;40.23;100356.72;6310539;20;2735741;-64